Time;durP1;ratioP1;P1;durP2;ratioP2;P2;SDS_P1;SDS_P2;PMS_P1;PMS_P2;Temp;Humidity;BMP_temperature;BMP_pressure;BME280_temperature;BME280_humidity;BME280_pressure;Samples;Min_cycle;Max_cycle;Signal;HPM_P1;HPM_P2
2022/11/05 00:09:31;;;;;;;11.55;3.90;;;;;;;5.52;100.00;100922.25;4802759;29;20045;-75
2022/11/05 00:17:43;;;;;;;8.55;3.55;;;;;;;5.52;100.00;100940.69;4827908;29;20030;-75
2022/11/05 00:20:09;;;;;;;9.98;3.97;;;;;;;5.49;100.00;100933.78;4798105;29;20049;-75
2022/11/05 00:25:20;;;;;;;14.88;3.97;;;;;;;5.46;100.00;100931.53;4802856;29;20399;-74
2022/11/05 00:27:51;;;;;;;10.65;4.15;;;;;;;5.42;100.00;100933.09;4798015;29;20110;-75
2022/11/05 00:30:21;;;;;;;7.30;3.60;;;;;;;5.47;100.00;100935.09;4797900;29;20044;-75
2022/11/05 00:32:47;;;;;;;9.00;3.90;;;;;;;5.44;100.00;100936.44;4813390;29;20651;-74
2022/11/05 00:35:13;;;;;;;15.60;3.80;;;;;;;5.44;100.00;100932.84;4778859;29;20021;-74
2022/11/05 00:37:38;;;;;;;9.60;4.03;;;;;;;5.44;100.00;100930.94;4826292;29;20045;-75
2022/11/05 00:40:05;;;;;;;12.35;4.32;;;;;;;5.45;100.00;100929.00;4797804;29;20045;-75
2022/11/05 00:45:14;;;;;;;10.48;3.70;;;;;;;5.45;100.00;100927.06;4817944;29;20117;-74
2022/11/05 00:50:24;;;;;;;10.80;4.07;;;;;;;5.46;100.00;100930.66;4795921;29;20157;-74
2022/11/05 00:52:58;;;;;;;10.60;3.97;;;;;;;5.43;100.00;100929.25;4810069;29;20038;-75
2022/11/05 00:55:38;;;;;;;9.82;4.35;;;;;;;5.44;100.00;100930.09;4811168;29;20026;-75
2022/11/05 00:58:05;;;;;;;10.23;3.88;;;;;;;5.44;100.00;100936.44;4780191;29;20522;-75
2022/11/05 01:00:32;;;;;;;10.48;3.85;;;;;;;5.46;100.00;100931.53;4768259;29;20488;-75
2022/11/05 01:02:59;;;;;;;10.48;4.00;;;;;;;5.49;100.00;100942.03;4810124;29;20038;-74
2022/11/05 01:05:24;;;;;;;10.48;4.40;;;;;;;5.50;100.00;100940.94;4794790;29;20030;-74
2022/11/05 01:07:51;;;;;;;12.00;4.47;;;;;;;5.49;100.00;100930.16;4809612;29;20518;-75
2022/11/05 01:10:17;;;;;;;10.32;4.05;;;;;;;5.51;100.00;100939.84;4825718;29;20035;-74
2022/11/05 01:12:43;;;;;;;11.73;3.85;;;;;;;5.53;100.00;100928.59;4779772;29;20041;-75
2022/11/05 01:15:08;;;;;;;11.88;3.92;;;;;;;5.55;100.00;100927.25;4780046;29;20049;-74
2022/11/05 01:17:34;;;;;;;13.85;4.30;;;;;;;5.57;100.00;100929.75;4813577;29;20049;-74
2022/11/05 01:20:00;;;;;;;12.80;4.45;;;;;;;5.58;100.00;100935.00;4809946;29;20031;-74
2022/11/05 01:22:25;;;;;;;9.75;4.30;;;;;;;5.62;100.00;100920.72;4794046;29;20043;-74
2022/11/05 01:24:51;;;;;;;9.65;4.00;;;;;;;5.62;100.00;100917.97;4809877;29;20030;-74
2022/11/05 01:27:16;;;;;;;8.23;4.10;;;;;;;5.67;100.00;100923.56;4809898;29;20038;-74
2022/11/05 01:29:42;;;;;;;10.45;4.55;;;;;;;5.67;100.00;100931.84;4782927;29;20054;-75
2022/11/05 01:32:07;;;;;;;10.77;4.43;;;;;;;5.69;100.00;100926.91;4797796;29;20039;-75
2022/11/05 01:34:33;;;;;;;9.52;3.67;;;;;;;5.72;100.00;100923.66;4796463;29;20454;-75
2022/11/05 01:36:58;;;;;;;9.65;4.05;;;;;;;5.74;100.00;100929.72;4812707;29;20050;-75
2022/11/05 01:39:24;;;;;;;10.32;3.88;;;;;;;5.75;100.00;100917.63;4812647;29;20077;-75
2022/11/05 01:41:49;;;;;;;8.80;3.63;;;;;;;5.78;100.00;100917.13;4796730;29;20046;-74
2022/11/05 01:44:52;;;;;;;9.07;3.80;;;;;;;5.81;100.00;100924.91;4797319;29;20430;-75
2022/11/05 01:47:28;;;;;;;7.93;4.20;;;;;;;5.83;100.00;100920.81;4829114;29;20134;-74
2022/11/05 01:49:54;;;;;;;9.18;4.45;;;;;;;5.85;100.00;100925.22;4797582;29;20475;-75
2022/11/05 01:52:20;;;;;;;14.23;4.63;;;;;;;5.86;100.00;100919.47;4782299;29;20034;-75
2022/11/05 01:54:46;;;;;;;10.48;3.80;;;;;;;5.87;100.00;100920.28;4797732;29;20027;-75
2022/11/05 01:57:12;;;;;;;10.73;3.95;;;;;;;5.89;100.00;100918.97;4812571;29;20034;-75
2022/11/05 01:59:49;;;;;;;7.05;3.65;;;;;;;5.93;100.00;100917.38;4797940;29;20693;-75
2022/11/05 02:02:14;;;;;;;9.02;4.00;;;;;;;5.93;100.00;100917.38;4793373;29;20091;-75
2022/11/05 02:05:01;;;;;;;8.70;4.32;;;;;;;5.95;100.00;100906.94;4797361;29;20042;-75
2022/11/05 02:07:26;;;;;;;10.50;3.65;;;;;;;5.96;100.00;100907.78;4796698;29;20046;-75
2022/11/05 02:09:57;;;;;;;8.40;3.92;;;;;;;5.97;100.00;100909.47;4797330;29;20514;-74
2022/11/05 02:12:22;;;;;;;10.23;3.38;;;;;;;5.94;100.00;100902.53;4811977;29;20035;-75
2022/11/05 02:14:48;;;;;;;8.82;3.97;;;;;;;5.95;100.00;100912.44;4797382;29;20532;-75
2022/11/05 02:17:20;;;;;;;9.88;4.20;;;;;;;5.94;100.00;100908.03;4812636;29;20038;-75
2022/11/05 02:20:11;;;;;;;7.80;3.97;;;;;;;5.91;100.00;100903.00;4797296;29;20026;-74
2022/11/05 02:23:03;;;;;;;10.15;3.83;;;;;;;5.91;100.00;100905.75;4812239;29;20047;-75
2022/11/05 02:26:10;;;;;;;7.57;3.67;;;;;;;5.91;100.00;100905.75;4784216;29;20053;-75
2022/11/05 02:28:57;;;;;;;8.27;3.92;;;;;;;5.90;100.00;100906.00;4806956;29;20062;-75
2022/11/05 02:32:00;;;;;;;9.60;4.05;;;;;;;5.88;100.00;100909.03;4820005;29;20095;-75
2022/11/05 02:34:47;;;;;;;10.93;4.30;;;;;;;5.88;100.00;100898.00;4792469;29;20046;-75
2022/11/05 02:37:29;;;;;;;9.68;3.88;;;;;;;5.88;100.00;100903.50;4779656;29;20027;-75
2022/11/05 02:40:12;;;;;;;8.43;3.97;;;;;;;5.85;100.00;100895.75;4775357;29;20721;-75
2022/11/05 02:43:02;;;;;;;12.35;3.80;;;;;;;5.86;100.00;100902.09;4794776;29;20072;-75
2022/11/05 02:45:45;;;;;;;6.63;3.50;;;;;;;5.85;100.00;100900.41;4808801;29;20050;-75
2022/11/05 02:48:37;;;;;;;6.68;3.60;;;;;;;5.86;100.00;100899.34;4806429;29;20039;-75
2022/11/05 02:51:14;;;;;;;7.40;3.75;;;;;;;5.86;100.00;100905.69;4810382;29;20045;-74
2022/11/05 02:53:55;;;;;;;6.15;3.50;;;;;;;5.87;100.00;100896.31;4796477;29;20037;-74
2022/11/05 02:56:29;;;;;;;10.07;3.58;;;;;;;5.88;100.00;100889.72;4796448;29;20061;-74
2022/11/05 02:58:55;;;;;;;8.82;3.75;;;;;;;5.92;100.00;100882.59;4791207;29;20039;-74
2022/11/05 03:01:20;;;;;;;9.13;3.42;;;;;;;5.90;100.00;100876.50;4796302;29;20037;-75
2022/11/05 03:03:56;;;;;;;6.13;3.38;;;;;;;5.89;100.00;100872.09;4796593;29;20046;-74
2022/11/05 03:06:42;;;;;;;7.85;3.35;;;;;;;5.90;100.00;100873.75;4782277;29;20034;-74
2022/11/05 03:09:29;;;;;;;11.85;3.70;;;;;;;5.94;100.00;100877.72;4801210;29;20077;-75
2022/11/05 03:11:55;;;;;;;8.75;3.17;;;;;;;5.95;100.00;100876.63;4795655;29;20042;-75
2022/11/05 03:14:22;;;;;;;8.95;3.65;;;;;;;5.97;100.00;100874.44;4810913;29;20496;-75
2022/11/05 03:17:16;;;;;;;8.45;3.25;;;;;;;5.96;100.00;100878.31;4811405;29;20031;-75
2022/11/05 03:19:47;;;;;;;11.73;3.92;;;;;;;6.00;100.00;100875.88;4810952;29;20038;-75
2022/11/05 03:22:15;;;;;;;8.63;3.42;;;;;;;6.02;100.00;100874.53;4795936;29;20038;-74
2022/11/05 03:24:46;;;;;;;9.10;3.30;;;;;;;5.99;100.00;100875.03;4781321;29;20125;-74
2022/11/05 03:27:13;;;;;;;9.25;3.55;;;;;;;5.99;100.00;100885.19;4780877;29;20115;-75
2022/11/05 03:29:43;;;;;;;7.75;3.88;;;;;;;6.03;100.00;100891.91;4811208;29;20038;-75
2022/11/05 03:32:09;;;;;;;5.78;3.78;;;;;;;6.07;100.00;100895.78;4780883;29;20038;-75
2022/11/05 03:34:41;;;;;;;6.22;3.92;;;;;;;6.06;100.00;100887.78;4794451;29;20069;-75
2022/11/05 03:37:07;;;;;;;7.40;3.38;;;;;;;6.07;100.00;100884.75;4795493;29;20441;-74
2022/11/05 03:39:36;;;;;;;8.38;3.65;;;;;;;6.10;100.00;100875.16;4796180;29;20026;-74
2022/11/05 03:42:02;;;;;;;8.30;3.72;;;;;;;6.09;100.00;100866.06;4786599;29;20070;-75
2022/11/05 03:44:30;;;;;;;6.13;2.97;;;;;;;6.10;100.00;100873.25;4764339;29;20043;-75
2022/11/05 03:47:00;;;;;;;6.22;3.35;;;;;;;6.12;100.00;100872.97;4774509;29;20038;-75
2022/11/05 03:49:29;;;;;;;9.05;3.03;;;;;;;6.14;100.00;100876.31;4797989;29;20102;-75
2022/11/05 03:51:57;;;;;;;7.97;3.38;;;;;;;6.13;100.00;100864.47;4816754;29;20040;-74
2022/11/05 03:54:23;;;;;;;10.15;3.35;;;;;;;6.15;100.00;100869.72;4798967;29;20037;-75
2022/11/05 03:57:15;;;;;;;7.53;2.88;;;;;;;6.19;100.00;100879.16;4813644;29;20052;-75
2022/11/05 03:59:42;;;;;;;11.48;3.00;;;;;;;6.15;100.00;100876.06;4838066;29;20046;-75
2022/11/05 04:02:09;;;;;;;7.50;2.70;;;;;;;6.17;100.00;100868.38;4813468;29;20038;-75
2022/11/05 04:04:34;;;;;;;6.43;2.92;;;;;;;6.18;100.00;100860.91;4804421;29;20172;-75
2022/11/05 04:15:12;;;;;;;9.45;2.70;;;;;;;6.23;100.00;100861.81;4833795;29;20376;-75
2022/11/05 04:17:37;;;;;;;9.70;3.28;;;;;;;6.23;100.00;100853.53;4813196;29;20064;-74
2022/11/05 04:25:31;;;;;;;9.80;3.40;;;;;;;6.28;100.00;100863.81;4818100;29;20041;-75
2022/11/05 04:27:58;;;;;;;7.63;3.00;;;;;;;6.30;100.00;100863.56;4813171;29;20062;-74
2022/11/05 04:30:23;;;;;;;8.52;2.72;;;;;;;6.35;100.00;100860.84;4844297;29;20029;-75
2022/11/05 04:33:08;;;;;;;6.97;2.90;;;;;;;6.31;100.00;100856.94;4828425;29;20038;-75
2022/11/05 04:35:47;;;;;;;12.43;3.47;;;;;;;6.34;100.00;100868.28;4813059;29;20029;-75
2022/11/05 04:38:14;;;;;;;8.52;2.80;;;;;;;6.35;100.00;100864.47;4798454;29;20040;-74
2022/11/05 04:40:39;;;;;;;8.85;3.30;;;;;;;6.36;100.00;100868.06;4812989;29;20575;-75
2022/11/05 04:43:06;;;;;;;8.98;3.50;;;;;;;6.37;100.00;100876.06;4797891;29;20034;-74
2022/11/05 04:45:35;;;;;;;10.40;3.60;;;;;;;6.36;100.00;100868.88;4813412;29;20045;-75
2022/11/05 04:48:01;;;;;;;8.68;3.42;;;;;;;6.42;100.00;100881.63;4795003;29;20385;-75
2022/11/05 04:50:27;;;;;;;7.32;3.42;;;;;;;6.40;100.00;100883.81;4839232;29;20133;-75
2022/11/05 04:52:52;;;;;;;8.50;3.38;;;;;;;6.39;100.00;100887.69;4827670;29;20046;-74
2022/11/05 04:55:18;;;;;;;8.63;3.22;;;;;;;6.40;100.00;100889.34;4797727;29;20045;-74
2022/11/05 04:57:46;;;;;;;6.40;3.42;;;;;;;6.42;100.00;100889.91;4797953;29;20037;-74
2022/11/05 05:00:12;;;;;;;10.20;3.33;;;;;;;6.43;100.00;100888.00;4783042;29;20041;-74
2022/11/05 05:02:37;;;;;;;9.80;2.95;;;;;;;6.44;100.00;100890.50;4813391;29;20034;-74
2022/11/05 05:05:03;;;;;;;7.70;3.20;;;;;;;6.44;100.00;100892.44;4828539;29;20034;-75
2022/11/05 05:07:29;;;;;;;9.13;3.20;;;;;;;6.45;100.00;100891.34;4816562;29;20067;-75
2022/11/05 05:09:54;;;;;;;9.00;3.30;;;;;;;6.47;100.00;100895.50;4810844;29;20030;-74
2022/11/05 05:12:20;;;;;;;8.23;3.03;;;;;;;6.45;100.00;100897.69;4815974;29;20038;-75
2022/11/05 05:14:49;;;;;;;8.80;3.13;;;;;;;6.46;100.00;100893.84;4816285;29;20038;-75
2022/11/05 05:17:14;;;;;;;8.52;3.28;;;;;;;6.49;100.00;100900.75;4831643;29;20030;-75
2022/11/05 05:22:24;;;;;;;8.75;3.20;;;;;;;6.50;100.00;100910.72;4820535;29;20064;-75
2022/11/05 05:24:51;;;;;;;10.45;3.47;;;;;;;6.48;100.00;100907.38;4816295;29;20029;-75
2022/11/05 05:27:16;;;;;;;5.75;3.40;;;;;;;6.48;100.00;100904.59;4847591;29;20037;-75
2022/11/05 05:29:41;;;;;;;7.72;3.10;;;;;;;6.48;100.00;100894.41;4816427;29;20038;-75
2022/11/05 05:32:07;;;;;;;7.35;3.03;;;;;;;6.52;100.00;100905.78;4816405;29;20038;-75
2022/11/05 05:34:32;;;;;;;7.28;2.53;;;;;;;6.52;100.00;100899.41;4812750;29;20030;-75
2022/11/05 05:36:58;;;;;;;5.68;2.70;;;;;;;6.51;100.00;100900.50;4796144;29;20048;-75
2022/11/05 05:39:23;;;;;;;11.30;3.00;;;;;;;6.52;100.00;100891.97;4831234;29;20025;-74
2022/11/05 05:41:49;;;;;;;10.00;3.30;;;;;;;6.53;100.00;100884.53;4846088;29;20056;-74
2022/11/05 05:44:14;;;;;;;10.13;3.45;;;;;;;6.53;100.00;100898.34;4785600;29;20034;-75
2022/11/05 05:46:40;;;;;;;9.68;3.22;;;;;;;6.54;100.00;100887.03;4815982;29;20038;-74
2022/11/05 05:49:06;;;;;;;8.50;3.13;;;;;;;6.56;100.00;100895.88;4808543;29;20046;-74
2022/11/05 05:51:31;;;;;;;8.55;2.95;;;;;;;6.56;100.00;100895.06;4812623;29;20087;-75
2022/11/05 05:53:57;;;;;;;9.85;3.30;;;;;;;6.54;100.00;100894.47;4777456;29;20042;-74
2022/11/05 05:56:22;;;;;;;8.18;3.10;;;;;;;6.58;100.00;100892.88;4810087;29;20035;-75
2022/11/05 05:58:48;;;;;;;8.50;2.95;;;;;;;6.56;100.00;100895.88;4812297;29;20034;-74
2022/11/05 06:01:14;;;;;;;9.23;3.03;;;;;;;6.57;100.00;100891.19;4828636;29;20030;-75
2022/11/05 06:03:40;;;;;;;5.57;2.67;;;;;;;6.59;100.00;100900.88;4797208;29;20045;-74
2022/11/05 06:06:07;;;;;;;7.93;3.08;;;;;;;6.59;100.00;100902.81;4798279;29;20027;-74
2022/11/05 06:08:33;;;;;;;6.43;2.80;;;;;;;6.59;100.00;100900.88;4797398;29;20034;-74
2022/11/05 06:10:58;;;;;;;6.32;2.85;;;;;;;6.62;100.00;100896.78;4813144;29;20046;-75
2022/11/05 06:13:24;;;;;;;9.10;3.08;;;;;;;6.63;100.00;100890.16;4811891;29;20404;-75
2022/11/05 06:15:50;;;;;;;6.82;2.80;;;;;;;6.60;100.00;100891.53;4782042;29;20034;-74
2022/11/05 06:18:15;;;;;;;9.90;3.03;;;;;;;6.63;100.00;100887.38;4772149;29;20070;-75
2022/11/05 06:20:41;;;;;;;10.73;2.45;;;;;;;6.64;100.00;100884.38;4811974;29;20405;-74
2022/11/05 06:23:06;;;;;;;6.15;2.70;;;;;;;6.66;100.00;100881.38;4797047;29;20042;-74
2022/11/05 06:25:32;;;;;;;7.50;2.97;;;;;;;6.66;100.00;100889.66;4797277;29;20038;-74
2022/11/05 06:27:57;;;;;;;7.65;2.63;;;;;;;6.64;100.00;100887.16;4797150;29;20041;-75
2022/11/05 06:30:23;;;;;;;6.15;2.60;;;;;;;6.66;100.00;100887.72;4812262;29;20038;-75
2022/11/05 06:32:49;;;;;;;11.85;2.90;;;;;;;6.71;100.00;100884.16;4796852;29;20038;-75
2022/11/05 06:35:14;;;;;;;6.07;2.22;;;;;;;6.71;100.00;100884.16;4780208;29;20140;-75
2022/11/05 06:37:40;;;;;;;5.88;2.40;;;;;;;6.71;100.00;100878.66;4811976;29;20035;-75
2022/11/05 06:40:06;;;;;;;6.90;2.78;;;;;;;6.71;100.00;100885.03;4812156;29;20026;-75
2022/11/05 06:42:31;;;;;;;8.07;2.67;;;;;;;6.70;100.00;100877.81;4809965;29;20046;-74
2022/11/05 06:44:57;;;;;;;8.15;2.60;;;;;;;6.70;100.00;100882.50;4796853;29;20045;-74
2022/11/05 06:47:22;;;;;;;8.73;2.63;;;;;;;6.72;100.00;100877.56;4782053;29;20034;-75
2022/11/05 06:49:47;;;;;;;9.45;2.58;;;;;;;6.74;100.00;100880.88;4796721;29;20046;-75
2022/11/05 06:52:13;;;;;;;8.10;2.80;;;;;;;6.74;100.00;100872.59;4811278;29;20514;-74
2022/11/05 06:54:39;;;;;;;6.43;2.20;;;;;;;6.75;100.00;100873.47;4793761;29;20030;-75
2022/11/05 06:57:08;;;;;;;7.13;2.42;;;;;;;6.78;100.00;100878.47;4795462;29;20035;-75
2022/11/05 06:59:33;;;;;;;6.15;2.40;;;;;;;6.77;100.00;100874.88;4782648;29;20169;-75
2022/11/05 07:01:59;;;;;;;6.93;2.40;;;;;;;6.80;100.00;100873.50;4796641;29;20069;-75
2022/11/05 07:04:24;;;;;;;5.70;2.17;;;;;;;6.80;100.00;100871.59;4778489;29;20031;-75
2022/11/05 07:06:50;;;;;;;4.80;2.38;;;;;;;6.80;100.00;100874.34;4825115;29;20038;-75
2022/11/05 07:09:15;;;;;;;7.68;2.95;;;;;;;6.80;100.00;100870.72;4807011;29;20031;-75
2022/11/05 07:11:41;;;;;;;7.18;2.80;;;;;;;6.81;100.00;100873.25;4794341;29;20031;-75
2022/11/05 07:14:06;;;;;;;7.10;2.50;;;;;;;6.84;100.00;100881.00;4796905;29;20030;-75
2022/11/05 07:16:32;;;;;;;5.25;2.10;;;;;;;6.82;100.00;100877.66;4796072;29;20034;-75
2022/11/05 07:18:57;;;;;;;7.70;3.13;;;;;;;6.83;100.00;100882.13;4778498;29;20026;-75
2022/11/05 07:21:23;;;;;;;5.75;2.40;;;;;;;6.85;100.00;100879.94;4795537;29;20038;-75
2022/11/05 07:23:48;;;;;;;6.82;2.65;;;;;;;6.86;100.00;100880.75;4778720;29;20088;-74
2022/11/05 07:26:14;;;;;;;5.93;2.42;;;;;;;6.87;100.00;100882.41;4823783;29;20444;-74
2022/11/05 07:28:39;;;;;;;11.57;2.92;;;;;;;6.87;100.00;100883.25;4781273;29;20038;-75
2022/11/05 07:31:05;;;;;;;8.40;2.22;;;;;;;6.88;100.00;100882.16;4801034;29;20037;-75
2022/11/05 07:33:30;;;;;;;7.15;2.55;;;;;;;6.91;100.00;100878.88;4797800;29;20034;-75
2022/11/05 07:35:56;;;;;;;5.50;2.40;;;;;;;6.94;100.00;100883.06;4786792;29;20675;-74
2022/11/05 07:38:22;;;;;;;7.13;2.55;;;;;;;6.93;100.00;100881.38;4780329;29;20042;-74
2022/11/05 07:40:47;;;;;;;7.63;2.47;;;;;;;6.93;100.00;100882.19;4827435;29;20090;-74
2022/11/05 07:43:13;;;;;;;7.60;2.65;;;;;;;6.96;100.00;100886.38;4808805;29;20045;-75
2022/11/05 07:45:38;;;;;;;10.20;2.55;;;;;;;7.00;100.00;100883.94;4781036;29;20046;-75
2022/11/05 07:48:04;;;;;;;11.00;2.60;;;;;;;6.99;100.00;100879.50;4810893;29;20038;-74
2022/11/05 07:50:33;;;;;;;10.30;2.72;;;;;;;7.01;100.00;100874.53;4794892;29;20508;-74
2022/11/05 07:53:06;;;;;;;7.13;2.30;;;;;;;7.03;100.00;100880.66;4810312;29;20459;-75
2022/11/05 07:55:32;;;;;;;7.90;2.58;;;;;;;7.06;100.00;100874.59;4780998;29;20026;-75
2022/11/05 07:57:57;;;;;;;3.88;2.05;;;;;;;7.09;100.00;100874.91;4781099;29;20041;-75
2022/11/05 08:00:23;;;;;;;5.28;2.47;;;;;;;7.12;100.00;100879.06;4795501;29;20036;-75
2022/11/05 08:02:59;;;;;;;7.18;2.33;;;;;;;7.15;100.00;100873.03;4780324;29;20103;-75
2022/11/05 08:05:24;;;;;;;6.18;2.10;;;;;;;7.19;100.00;100871.41;4815120;29;20063;-75
2022/11/05 08:07:52;;;;;;;6.35;2.40;;;;;;;7.22;100.00;100876.41;4796575;29;20041;-74
2022/11/05 08:10:18;;;;;;;9.10;2.55;;;;;;;7.26;100.00;100869.25;4816328;29;20038;-74
2022/11/05 08:12:43;;;;;;;9.10;2.60;;;;;;;7.34;100.00;100873.47;4809808;29;20048;-75
2022/11/05 08:15:09;;;;;;;8.85;2.50;;;;;;;7.38;100.00;100878.22;4795254;29;20423;-74
2022/11/05 08:17:35;;;;;;;5.63;2.38;;;;;;;7.42;100.00;100875.75;4808183;29;20034;-75
2022/11/05 08:20:00;;;;;;;7.50;2.00;;;;;;;7.46;100.00;100873.28;4826303;29;20118;-75
2022/11/05 08:22:26;;;;;;;11.10;3.03;;;;;;;7.49;100.00;100878.28;4794501;29;20038;-74
2022/11/05 08:24:51;;;;;;;9.13;2.45;;;;;;;7.53;100.00;100869.19;4792479;29;20423;-75
2022/11/05 08:27:17;;;;;;;5.88;2.15;;;;;;;7.58;100.00;100873.94;4804281;29;20030;-75
2022/11/05 08:29:42;;;;;;;8.75;2.42;;;;;;;7.61;100.00;100877.00;4789285;29;20038;-75
2022/11/05 08:32:08;;;;;;;8.43;2.40;;;;;;;7.65;100.00;100871.75;4796509;29;20061;-75
2022/11/05 08:34:33;;;;;;;8.93;2.60;;;;;;;7.71;100.00;100878.16;4806484;29;20547;-75
2022/11/05 08:37:00;;;;;;;7.43;2.33;;;;;;;7.73;100.00;100871.25;4809313;29;20067;-75
2022/11/05 08:39:25;;;;;;;11.45;3.15;;;;;;;7.79;100.00;100878.50;4794651;29;20461;-75
2022/11/05 08:41:51;;;;;;;13.23;2.40;;;;;;;7.84;100.00;100875.75;4793720;29;20041;-75
2022/11/05 08:44:16;;;;;;;9.05;2.70;;;;;;;7.88;100.00;100880.75;4808954;29;20535;-75
2022/11/05 08:46:42;;;;;;;6.05;2.60;;;;;;;7.90;100.00;100873.03;4780259;29;20035;-75
2022/11/05 08:49:07;;;;;;;10.10;2.40;;;;;;;7.93;100.00;100873.31;4817252;29;20099;-75
2022/11/05 08:51:33;;;;;;;7.53;2.53;;;;;;;7.98;100.00;100869.75;4782899;29;20030;-75
2022/11/05 08:53:58;;;;;;;11.00;2.20;;;;;;;8.01;100.00;100874.75;4812623;29;20038;-75
2022/11/05 08:56:24;;;;;;;9.60;3.05;;;;;;;8.04;100.00;100871.44;4797672;29;20037;-75
2022/11/05 08:58:49;;;;;;;9.73;2.80;;;;;;;8.10;100.00;100873.13;4797676;29;20400;-75
2022/11/05 09:01:14;;;;;;;11.85;2.78;;;;;;;8.13;100.00;100878.13;4821137;29;20034;-75
2022/11/05 09:03:40;;;;;;;11.00;2.60;;;;;;;8.16;100.00;100871.22;4808917;29;20045;-75
2022/11/05 09:06:06;;;;;;;12.27;3.25;;;;;;;8.22;100.00;100862.69;4825782;29;20090;-75
2022/11/05 09:08:31;;;;;;;12.98;2.95;;;;;;;8.25;100.00;100864.94;4823908;29;20035;-70
2022/11/05 09:10:57;;;;;;;11.25;2.55;;;;;;;8.31;100.00;100859.41;4831982;29;20034;-75
2022/11/05 09:13:23;;;;;;;7.07;2.28;;;;;;;8.33;100.00;100862.72;4812490;29;20112;-75
2022/11/05 09:15:49;;;;;;;10.88;3.47;;;;;;;8.42;100.00;100872.22;4813265;29;20042;-75
2022/11/05 09:18:15;;;;;;;7.22;2.90;;;;;;;8.48;100.00;100871.13;4824514;29;20038;-75
2022/11/05 09:20:40;;;;;;;14.02;3.47;;;;;;;8.53;100.00;100854.53;4836657;29;20038;-75
2022/11/05 09:23:06;;;;;;;11.27;3.03;;;;;;;8.59;100.00;100856.22;4812466;29;20106;-75
2022/11/05 09:25:32;;;;;;;14.38;3.90;;;;;;;8.67;100.00;100855.69;4812673;29;20068;-75
2022/11/05 09:28:08;;;;;;;8.65;3.15;;;;;;;8.75;100.00;100861.78;4827394;29;20030;-75
2022/11/05 09:30:34;;;;;;;11.18;3.20;;;;;;;8.80;100.00;100870.09;4812516;29;20105;-75
2022/11/05 09:32:59;;;;;;;9.55;3.33;;;;;;;8.88;100.00;100862.09;4812456;29;20053;-75
2022/11/05 09:35:25;;;;;;;9.73;2.72;;;;;;;8.97;100.00;100864.31;4842784;29;20026;-75
2022/11/05 09:37:50;;;;;;;11.35;3.40;;;;;;;9.03;100.00;100861.31;4827561;29;20034;-75
2022/11/05 09:40:16;;;;;;;13.45;3.42;;;;;;;9.13;100.00;100849.38;4820313;29;20035;-75
2022/11/05 09:42:42;;;;;;;13.40;3.35;;;;;;;9.21;100.00;100836.91;4820485;29;20035;-75
2022/11/05 09:45:09;;;;;;;11.27;3.00;;;;;;;9.31;100.00;100842.47;4820539;29;20034;-75
2022/11/05 09:47:37;;;;;;;10.90;3.40;;;;;;;9.40;100.00;100840.78;4797040;29;20037;-75
2022/11/05 09:50:06;;;;;;;10.35;3.25;;;;;;;9.50;100.00;100842.72;4815089;29;20384;-75
2022/11/05 09:52:32;;;;;;;17.80;3.50;;;;;;;9.60;100.00;100840.75;4815534;29;20038;-75
2022/11/05 09:54:57;;;;;;;13.45;3.38;;;;;;;9.70;100.00;100839.94;4815641;29;20403;-76
2022/11/05 09:57:41;;;;;;;15.50;3.83;;;;;;;9.81;100.00;100837.97;4815893;29;20041;-75
2022/11/05 10:00:08;;;;;;;13.35;3.50;;;;;;;9.90;100.00;100839.06;4815903;29;20033;-75
2022/11/05 10:02:55;;;;;;;17.55;3.60;;;;;;;9.97;100.00;100839.59;4800820;29;20033;-74
2022/11/05 10:05:22;;;;;;;16.17;3.65;;;;;;;10.04;100.00;100839.28;4817377;29;20042;-75
2022/11/05 10:07:57;;;;;;;14.52;3.90;;;;;;;10.11;100.00;100844.53;4795379;29;20039;-76
2022/11/05 10:10:40;;;;;;;14.77;3.47;;;;;;;10.17;100.00;100838.69;4819434;29;20046;-75
2022/11/05 10:13:23;;;;;;;17.80;3.95;;;;;;;10.28;100.00;100833.97;4835088;29;20049;-75
2022/11/05 10:16:26;;;;;;;11.80;4.20;;;;;;;10.40;100.00;100826.13;4793317;29;20045;-75
2022/11/05 10:18:58;;;;;;;19.63;3.92;;;;;;;10.55;100.00;100818.81;4830007;29;20037;-75
2022/11/05 10:21:24;;;;;;;13.38;3.40;;;;;;;10.66;100.00;100812.91;4799902;29;20042;-76
2022/11/05 10:23:49;;;;;;;13.38;3.40;;;;;;;10.76;100.00;100809.25;4845085;29;20052;-77
2022/11/05 10:26:26;;;;;;;13.48;3.17;;;;;;;10.86;100.00;100814.72;4810442;29;20035;-79
2022/11/05 10:28:51;;;;;;;9.35;2.60;;;;;;;10.95;100.00;100832.47;4815445;29;20034;-77
2022/11/05 10:31:19;;;;;;;9.30;3.53;;;;;;;11.08;100.00;100824.59;4800070;29;20099;-74
2022/11/05 10:33:45;;;;;;;12.55;3.28;;;;;;;11.17;100.00;100815.34;4830436;29;20066;-75
2022/11/05 10:36:28;;;;;;;14.60;3.15;;;;;;;11.30;100.00;100810.22;4844732;29;20038;-76
2022/11/05 10:39:12;;;;;;;12.38;3.17;;;;;;;11.40;100.00;100816.53;4831125;29;20087;-75
2022/11/05 10:42:01;;;;;;;9.52;3.15;;;;;;;11.50;100.00;100823.94;4829680;29;20120;-76
2022/11/05 10:44:40;;;;;;;12.05;3.17;;;;;;;11.64;100.00;100815.72;4861081;29;20112;-75
2022/11/05 10:47:27;;;;;;;14.80;2.58;;;;;;;11.77;100.00;100808.66;4829664;29;20042;-76
2022/11/05 10:49:59;;;;;;;10.48;2.47;;;;;;;11.90;100.00;100801.59;4824931;29;20541;-76
2022/11/05 10:52:35;;;;;;;11.13;2.72;;;;;;;12.02;100.00;100802.00;4819590;29;20031;-76
2022/11/05 10:55:05;;;;;;;9.30;2.88;;;;;;;12.13;100.00;100794.34;4823580;29;20133;-76
2022/11/05 10:57:36;;;;;;;10.75;2.50;;;;;;;12.24;100.00;100793.91;4819471;29;20037;-76
2022/11/05 11:00:22;;;;;;;12.57;2.75;;;;;;;12.36;100.00;100792.66;4822096;29;20045;-76
2022/11/05 11:02:53;;;;;;;14.40;2.83;;;;;;;12.43;100.00;100793.13;4774688;29;20038;-76
2022/11/05 11:05:27;;;;;;;14.18;2.70;;;;;;;12.52;100.00;100786.56;4814879;29;20547;-76
2022/11/05 11:07:55;;;;;;;12.68;2.75;;;;;;;12.62;100.00;100790.34;4820129;29;20399;-76
2022/11/05 11:10:21;;;;;;;10.20;2.80;;;;;;;12.70;100.00;100782.16;4801605;29;20039;-73
2022/11/05 11:12:48;;;;;;;12.45;3.05;;;;;;;12.81;100.00;100791.16;4829356;29;20042;-76
2022/11/05 11:15:20;;;;;;;13.52;2.28;;;;;;;12.89;100.00;100784.06;4808498;29;20638;-76
2022/11/05 11:17:45;;;;;;;9.73;2.40;;;;;;;12.95;100.00;100783.72;4833477;29;20033;-76
2022/11/05 11:20:30;;;;;;;10.35;2.10;;;;;;;13.04;100.00;100789.41;4802017;29;20030;-77
2022/11/05 11:23:09;;;;;;;16.15;2.53;;;;;;;13.12;100.00;100799.88;4816583;29;20595;-76
2022/11/05 11:25:41;;;;;;;13.77;2.30;;;;;;;13.19;100.00;100794.72;4821652;29;20042;-77
2022/11/05 11:28:13;;;;;;;11.80;2.10;;;;;;;13.25;100.00;100794.66;4827650;29;20047;-77
2022/11/05 11:30:38;;;;;;;11.95;2.85;;;;;;;13.32;100.00;100800.72;4817223;29;20030;-76
2022/11/05 11:33:06;;;;;;;8.38;2.42;;;;;;;13.38;100.00;100785.53;4802807;29;20515;-77
2022/11/05 11:35:31;;;;;;;14.35;2.53;;;;;;;13.43;100.00;100787.38;4805121;29;20038;-77
2022/11/05 11:37:59;;;;;;;10.77;2.17;;;;;;;13.44;100.00;100781.50;4804098;29;20046;-77
2022/11/05 11:40:30;;;;;;;13.18;2.53;;;;;;;13.47;100.00;100783.69;4799624;29;20039;-77
2022/11/05 11:42:57;;;;;;;8.85;2.55;;;;;;;13.49;100.00;100792.59;4803239;29;20053;-77
2022/11/05 11:45:31;;;;;;;7.53;2.38;;;;;;;13.54;100.00;100780.47;4805685;29;20259;-77
2022/11/05 11:47:56;;;;;;;10.85;2.45;;;;;;;13.54;100.00;100784.13;4821440;29;20041;-77
2022/11/05 11:50:31;;;;;;;14.20;2.58;;;;;;;13.59;100.00;100772.00;4819908;29;20061;-77
2022/11/05 11:53:25;;;;;;;10.95;2.53;;;;;;;13.62;100.00;100768.59;4819446;29;20038;-77
2022/11/05 11:55:54;;;;;;;11.30;2.20;;;;;;;13.67;100.00;100764.91;4832137;29;20079;-76
2022/11/05 11:58:20;;;;;;;9.68;2.58;;;;;;;13.70;100.00;100758.69;4832700;29;20030;-77
2022/11/05 12:00:48;;;;;;;8.70;2.53;;;;;;;13.72;100.00;100745.28;4820960;29;20045;-77
2022/11/05 12:03:53;;;;;;;12.25;2.83;;;;;;;13.72;100.00;100737.72;4820724;29;20373;-77
2022/11/05 12:06:43;;;;;;;9.52;2.60;;;;;;;13.75;100.00;100741.84;4811714;29;20053;-77
2022/11/05 12:09:25;;;;;;;7.22;2.28;;;;;;;13.77;100.00;100750.75;4822698;29;20112;-77